Home   Weather   Australia   Mount Isa   Past weeks
Flag for Australia

Past Weather in Mount Isa, Queensland, Australia — Yesterday and Last 2 Weeks

Currently: 72 °F. Sunny. (Weather station: Mount Isa Amo, Australia). See more current weather

Past Weather in Mount Isa — Graph

°F

Mount Isa Temperature Yesterday

Maximum temperature yesterday: 79 °F (at 3:00 pm)
Minimum temperature yesterday: 28 °F (at 6:30 am)
Average temperature yesterday: 56 °F

High & Low Weather Summary for the Past Weeks

 TemperatureHumidityPressure
High86 °F (Jul 7, 3:00 pm)94% (Jul 8, 7:30 am)30.27 "Hg (Jul 8, 7:30 am)
Low28 °F (Jul 19, 6:30 am)12% (Jul 11, 3:00 pm)29.89 "Hg (Jul 12, 2:00 pm)
Average60 °F49%30.08 "Hg
* Reported Jul 6 1:00 pm — Jul 21 1:00 pm, Mount Isa. Weather by CustomWeather, © 2024

Note: Actual official high and low records may vary slightly from our data, if they occured in-between our weather recording intervals... More about our weather records

Mount Isa Weather History for the Previous 24 Hours

Scroll right to see more
 ConditionsComfort  
Time TempWeatherWind HumidityBarometerVisibility
1:00 pm
Sun, Jul 21
72 °FSunny.8 mph20%30.21 "HgN/A
12:30 pm70 °FSunny.12 mph21%30.21 "HgN/A
12:00 pm68 °FSunny.10 mph26%30.24 "HgN/A
11:30 am66 °FSunny.10 mph28%30.24 "HgN/A
11:00 am64 °FSunny.12 mph30%30.27 "HgN/A
10:30 am63 °FSunny.12 mph32%30.27 "HgN/A
10:00 am63 °FSunny.14 mph32%30.27 "HgN/A
9:30 am61 °FSunny.15 mph31%30.27 "HgN/A
9:00 am57 °FSunny.10 mph36%30.27 "HgN/A
8:00 am50 °FSunny.3 mph50%30.24 "HgN/A
7:30 am46 °FSunny.2 mph57%30.24 "HgN/A
7:00 am48 °FClear.1 mph54%30.24 "HgN/A
5:30 am50 °FClear.No wind50%30.21 "HgN/A
5:00 am52 °FClear.6 mph47%30.21 "HgN/A
4:30 am52 °FClear.7 mph47%30.21 "HgN/A
4:00 am52 °FClear.7 mph50%30.18 "HgN/A
3:30 am54 °FClear.9 mph47%30.18 "HgN/A
3:00 am54 °FClear.8 mph47%30.21 "HgN/A
2:30 am54 °FClear.10 mph47%30.21 "HgN/A
2:00 am55 °FClear.7 mph47%30.21 "HgN/A
1:30 am55 °FClear.8 mph47%30.21 "HgN/A
1:00 am57 °FClear.10 mph44%30.21 "HgN/A
12:30 am57 °FClear.10 mph44%30.21 "HgN/A
11:30 pm
Sat, Jul 20
57 °FClear.8 mph44%30.21 "HgN/A
10:30 pm57 °FClear.9 mph44%30.18 "HgN/A
10:00 pm59 °FClear.8 mph39%30.18 "HgN/A
9:30 pm59 °FClear.6 mph39%30.18 "HgN/A
9:00 pm61 °FClear.7 mph36%30.18 "HgN/A
8:30 pm63 °FClear.7 mph34%30.18 "HgN/A
8:00 pm64 °FClear.8 mph32%30.15 "HgN/A
7:30 pm66 °FClear.8 mph28%30.15 "HgN/A
7:00 pm68 °FClear.13 mph24%30.12 "HgN/A
6:30 pm70 °FClear.12 mph23%30.12 "HgN/A
6:00 pm73 °FSunny.15 mph19%30.09 "HgN/A
5:30 pm75 °FSunny.12 mph18%30.09 "HgN/A
5:00 pm77 °FSunny.15 mph17%30.09 "HgN/A
4:30 pm77 °FSunny.14 mph17%30.09 "HgN/A
4:00 pm79 °FSunny.13 mph15%30.09 "HgN/A
3:30 pm79 °FSunny.15 mph15%30.09 "HgN/A
3:00 pm79 °FSunny.13 mph15%30.09 "HgN/A
2:30 pm77 °FSunny.8 mph17%30.09 "HgN/A
2:00 pm77 °FSunny.15 mph15%30.09 "HgN/A
Weather by CustomWeather, © 2024

See weather overview